Time;durP1;ratioP1;P1;durP2;ratioP2;P2;SDS_P1;SDS_P2;PMS_P1;PMS_P2;Temp;Humidity;BMP_temperature;BMP_pressure;BME280_temperature;BME280_humidity;BME280_pressure;Samples;Min_cycle;Max_cycle;Signal;HPM_P1;HPM_P2
2022/07/04 00:00:17;;;;;;;;;0.00;0.00;;;;;21.33;45.05;101820.75;5036096;28;45554;-83
2022/07/04 00:02:43;;;;;;;;;0.00;0.00;;;;;20.32;44.53;101655.34;5035902;28;46081;-83
2022/07/04 00:05:10;;;;;;;;;2.00;0.00;;;;;21.32;45.10;101818.97;5035861;28;45361;-82
2022/07/04 00:07:45;;;;;;;;;0.00;0.00;;;;;20.87;44.92;101750.81;5035684;28;45389;-83
2022/07/04 00:10:13;;;;;;;;;0.00;0.00;;;;;20.25;45.36;101651.31;5018133;28;45378;-83
2022/07/04 00:12:39;;;;;;;;;0.00;0.00;;;;;20.12;45.52;101631.50;5019801;28;47287;-82
2022/07/04 00:15:06;;;;;;;;;1.00;1.00;;;;;20.64;44.99;101734.34;5039196;28;45458;-83
2022/07/04 00:17:31;;;;;;;;;0.00;0.00;;;;;20.69;45.57;101735.88;5039424;28;45424;-82
2022/07/04 00:19:57;;;;;;;;;1.00;0.00;;;;;21.15;45.57;101824.75;5039413;28;45464;-83
2022/07/04 00:22:23;;;;;;;;;0.00;0.00;;;;;20.55;45.90;101728.66;5038687;28;45606;-82
2022/07/04 00:24:48;;;;;;;;;2.00;1.00;;;;;21.07;46.03;101820.75;5039203;28;45421;-83
2022/07/04 00:27:14;;;;;;;;;2.00;1.00;;;;;20.55;45.68;101748.50;5039199;28;45308;-83
2022/07/04 00:29:39;;;;;;;;;0.00;0.00;;;;;19.72;46.05;101620.72;5039584;28;45606;-82
2022/07/04 00:32:05;;;;;;;;;2.00;1.00;;;;;20.60;46.28;101787.03;5039012;28;45317;-82
2022/07/04 00:34:30;;;;;;;;;0.00;0.00;;;;;20.82;46.33;101821.59;5039317;28;45372;-82
2022/07/04 00:36:56;;;;;;;;;1.00;0.00;;;;;20.60;46.21;101784.31;5038972;28;45296;-83
2022/07/04 00:39:21;;;;;;;;;2.00;1.00;;;;;19.82;46.78;101667.81;5021222;28;45452;-83
2022/07/04 00:41:47;;;;;;;;;0.00;0.00;;;;;20.74;46.95;101836.66;5039062;28;45731;-82
2022/07/04 00:44:15;;;;;;;;;4.33;1.67;;;;;20.61;46.68;101832.09;5038862;28;45348;-82
2022/07/04 00:46:42;;;;;;;;;1.00;1.00;;;;;20.65;46.75;101836.31;5038991;28;45511;-82
2022/07/04 00:49:08;;;;;;;;;0.00;0.00;;;;;20.69;46.70;101830.69;5039019;28;45463;-83
2022/07/04 00:51:34;;;;;;;;;0.00;0.00;;;;;20.66;46.53;101832.63;5038433;28;46269;-82
2022/07/04 00:54:00;;;;;;;;;1.00;1.00;;;;;20.64;46.50;101834.56;5038876;28;45246;-82
2022/07/04 00:56:26;;;;;;;;;2.00;0.67;;;;;20.01;46.60;101735.06;5038648;28;45328;-83
2022/07/04 00:58:52;;;;;;;;;0.00;0.00;;;;;20.61;46.89;101836.66;5039196;28;45544;-83
2022/07/04 01:01:19;;;;;;;;;0.00;0.00;;;;;20.22;47.04;101786.88;5038261;28;46943;-83
2022/07/04 01:03:44;;;;;;;;;0.00;0.00;;;;;20.48;47.14;101836.56;5038251;28;45854;-83
2022/07/04 01:06:10;;;;;;;;;1.00;1.00;;;;;20.22;47.02;101804.00;5038682;28;45430;-82
2022/07/04 01:08:41;;;;;;;;;0.00;0.00;;;;;19.90;46.98;101757.47;5039044;28;45427;-82
2022/07/04 01:11:06;;;;;;;;;0.00;0.00;;;;;20.40;47.40;101850.63;5038329;28;47139;-82
2022/07/04 01:13:32;;;;;;;;;1.00;0.00;;;;;20.37;47.36;101848.16;5038443;28;45516;-82
2022/07/04 01:16:01;;;;;;;;;0.00;0.00;;;;;19.63;47.04;101727.66;5038753;28;45450;-82
2022/07/04 01:18:26;;;;;;;;;1.00;1.00;;;;;19.26;47.72;101667.03;5038292;28;45354;-82
2022/07/04 01:20:52;;;;;;;;;1.00;1.00;;;;;19.31;47.72;101678.41;5037957;28;47022;-83
2022/07/04 01:23:17;;;;;;;;;1.00;1.00;;;;;19.04;47.67;101648.66;5036530;28;45543;-83
2022/07/04 01:25:42;;;;;;;;;1.00;1.00;;;;;20.15;48.05;101837.88;5038300;28;45416;-82
2022/07/04 01:28:08;;;;;;;;;1.00;1.00;;;;;20.15;47.52;101834.28;5038334;28;45563;-83
2022/07/04 01:30:36;;;;;;;;;1.00;0.33;;;;;19.02;47.96;101653.28;5038205;28;46338;-82
2022/07/04 01:33:01;;;;;;;;;1.00;1.00;;;;;19.78;48.48;101783.50;5037703;28;45364;-82
2022/07/04 01:35:26;;;;;;;;;0.67;0.67;;;;;20.03;48.20;101825.16;5038034;28;45384;-82
2022/07/04 01:37:52;;;;;;;;;2.33;1.00;;;;;20.06;48.44;101837.63;5020593;28;45524;-82
2022/07/04 01:40:18;;;;;;;;;0.67;0.00;;;;;20.02;48.85;101837.81;5037498;28;45371;-82
2022/07/04 01:42:43;;;;;;;;;1.00;1.00;;;;;19.99;48.96;101839.84;5037866;28;45364;-83
2022/07/04 01:45:10;;;;;;;;;1.00;1.00;;;;;19.95;49.05;101839.19;5037929;28;45344;-83
2022/07/04 01:47:36;;;;;;;;;0.00;0.00;;;;;19.94;48.72;101832.03;5037658;28;45439;-83
2022/07/04 01:50:02;;;;;;;;;0.00;0.00;;;;;19.16;48.65;101702.75;5037779;28;47391;-83
2022/07/04 01:52:27;;;;;;;;;2.00;0.00;;;;;18.88;49.04;101671.25;5037712;28;45379;-82
2022/07/04 01:54:53;;;;;;;;;2.00;0.00;;;;;19.01;48.71;101692.97;5037037;28;45412;-83
2022/07/04 01:57:18;;;;;;;;;0.00;0.00;;;;;19.52;48.73;101789.69;5037932;28;45484;-83
2022/07/04 02:02:28;;;;;;;;;1.00;1.00;;;;;19.88;48.73;101828.84;5037274;28;45539;-82
2022/07/04 02:04:53;;;;;;;;;0.67;0.00;;;;;19.57;49.21;101784.84;5037733;28;45407;-83
2022/07/04 02:07:19;;;;;;;;;0.00;0.00;;;;;19.81;49.11;101832.00;5019828;28;45298;-82
2022/07/04 02:09:44;;;;;;;;;0.00;0.00;;;;;19.55;49.53;101789.47;5037402;28;46404;-83
2022/07/04 02:14:54;;;;;;;;;2.00;0.67;;;;;19.66;49.44;101819.41;5037541;28;45452;-83
2022/07/04 02:17:20;;;;;;;;;0.33;0.33;;;;;19.66;50.06;101826.66;5037188;28;45289;-83
2022/07/04 02:19:46;;;;;;;;;4.00;2.00;;;;;19.33;49.85;101780.06;5036202;28;47960;-83
2022/07/04 02:22:11;;;;;;;;;1.67;1.67;;;;;19.58;50.00;101828.03;5016963;28;45377;-82
2022/07/04 02:24:37;;;;;;;;;1.00;1.00;;;;;19.30;50.16;101780.28;5017581;28;45383;-83
2022/07/04 02:27:03;;;;;;;;;1.00;1.00;;;;;19.54;50.53;101825.63;5017366;28;45358;-83
2022/07/04 02:29:28;;;;;;;;;1.00;1.00;;;;;18.40;50.27;101642.75;5017700;28;45303;-83
2022/07/04 02:31:53;;;;;;;;;2.00;2.00;;;;;18.12;50.69;101588.69;5016856;28;45390;-83
2022/07/04 02:34:19;;;;;;;;;1.00;1.00;;;;;19.51;50.69;101820.41;5017110;28;45531;-83
2022/07/04 02:36:45;;;;;;;;;1.00;1.00;;;;;19.50;50.94;101827.69;5016505;28;45436;-82
2022/07/04 02:39:10;;;;;;;;;0.00;0.00;;;;;19.43;50.54;101809.22;5016827;28;46330;-82
2022/07/04 02:41:36;;;;;;;;;3.00;1.00;;;;;19.52;49.89;101827.56;5016934;28;45468;-83
2022/07/04 02:44:01;;;;;;;;;0.00;0.00;;;;;18.16;50.18;101602.00;5017145;28;45412;-83
2022/07/04 02:46:27;;;;;;;;;0.00;0.00;;;;;18.88;50.69;101727.97;5020528;28;45516;-83
2022/07/04 02:48:52;;;;;;;;;2.00;2.00;;;;;19.40;50.81;101823.81;5036881;28;45982;-82
2022/07/04 02:51:18;;;;;;;;;1.00;1.00;;;;;18.74;50.93;101725.25;5036657;28;45476;-83
2022/07/04 02:53:43;;;;;;;;;1.00;1.00;;;;;18.73;51.32;101724.38;5037118;28;45587;-83
2022/07/04 02:56:09;;;;;;;;;2.00;1.00;;;;;18.65;51.62;101718.56;5037193;28;45525;-83
2022/07/04 02:58:34;;;;;;;;;1.00;1.00;;;;;19.33;51.17;101825.16;5036778;28;46206;-83
2022/07/04 03:01:00;;;;;;;;;1.33;1.33;;;;;17.87;51.34;101570.44;5018589;28;45341;-83
2022/07/04 03:03:25;;;;;;;;;2.00;0.00;;;;;19.33;51.39;101830.56;5036787;28;45274;-83
2022/07/04 03:05:51;;;;;;;;;2.00;1.00;;;;;19.32;51.54;101839.66;5037405;28;45366;-83
2022/07/04 03:08:17;;;;;;;;;1.00;1.00;;;;;19.30;51.64;101836.19;5036501;28;45345;-83
2022/07/04 03:10:42;;;;;;;;;1.00;1.00;;;;;18.10;51.42;101646.41;5036875;28;45358;-83
2022/07/04 03:13:08;;;;;;;;;1.33;1.33;;;;;18.53;51.08;101719.34;5036634;28;45214;-83
2022/07/04 03:15:33;;;;;;;;;2.00;1.00;;;;;18.59;51.16;101726.19;5036622;28;45473;-82
2022/07/04 03:17:59;;;;;;;;;1.67;1.67;;;;;19.28;51.42;101855.19;5036463;28;46411;-83
2022/07/04 03:20:24;;;;;;;;;1.67;1.67;;;;;19.19;51.46;101828.72;5036296;28;45435;-83
2022/07/04 03:22:51;;;;;;;;;4.00;1.00;;;;;19.22;51.19;101855.56;5036477;28;45681;-83
2022/07/04 03:25:17;;;;;;;;;1.00;1.00;;;;;18.83;51.30;101789.53;5036448;28;45532;-83
2022/07/04 03:27:42;;;;;;;;;0.67;0.67;;;;;18.50;51.77;101743.84;5036085;28;46662;-82
2022/07/04 03:30:08;;;;;;;;;2.33;1.00;;;;;19.15;51.77;101849.69;5035735;28;45472;-83
2022/07/04 03:32:33;;;;;;;;;0.00;0.00;;;;;18.65;51.60;101774.41;5036508;28;45403;-82
2022/07/04 03:34:58;;;;;;;;;1.00;1.00;;;;;19.16;51.78;101845.16;5036690;28;45302;-83
2022/07/04 03:37:24;;;;;;;;;2.00;2.00;;;;;17.43;51.96;101549.69;5035550;28;52698;-82
2022/07/04 03:39:49;;;;;;;;;1.00;1.00;;;;;18.79;51.90;101781.72;5036329;28;45332;-83
2022/07/04 03:42:14;;;;;;;;;1.00;1.00;;;;;17.99;51.82;101652.44;5036052;28;45336;-83
2022/07/04 03:44:40;;;;;;;;;2.33;2.00;;;;;18.04;51.98;101671.91;5036197;28;45234;-83
2022/07/04 03:47:05;;;;;;;;;1.00;1.00;;;;;19.07;52.15;101859.22;5036963;28;45306;-83
2022/07/04 03:49:30;;;;;;;;;1.00;1.00;;;;;19.02;52.43;101853.25;5021867;28;45749;-83
2022/07/04 03:51:56;;;;;;;;;1.00;1.00;;;;;18.75;52.27;101798.09;5039879;28;45422;-82
2022/07/04 03:54:21;;;;;;;;;1.00;1.00;;;;;17.66;52.19;101631.03;5039984;28;45602;-83
2022/07/04 03:56:46;;;;;;;;;0.00;0.00;;;;;18.65;52.75;101806.81;5021391;28;47227;-83
2022/07/04 03:59:12;;;;;;;;;1.00;0.67;;;;;17.71;52.89;101650.50;5039061;28;45395;-82
2022/07/04 04:01:37;;;;;;;;;0.67;0.67;;;;;17.89;52.52;101671.03;5039640;28;45325;-82
2022/07/04 04:06:46;;;;;;;;;0.33;0.33;;;;;18.61;52.83;101781.81;5039326;28;45755;-83
2022/07/04 04:09:16;;;;;;;;;2.00;1.00;;;;;18.61;53.08;101799.88;5039075;28;45314;-83
2022/07/04 04:11:42;;;;;;;;;1.00;1.00;;;;;17.69;53.15;101655.09;5039706;28;45380;-83
2022/07/04 04:14:07;;;;;;;;;1.00;1.00;;;;;18.58;53.55;101803.63;5039132;28;45906;-82
2022/07/04 04:16:33;;;;;;;;;2.00;2.00;;;;;17.49;53.34;101629.34;5039209;28;46264;-82
2022/07/04 04:18:58;;;;;;;;;2.00;2.00;;;;;18.80;53.17;101856.38;5039412;28;45371;-83
2022/07/04 04:21:23;;;;;;;;;1.00;1.00;;;;;18.77;53.21;101847.47;5024815;28;45325;-82
2022/07/04 04:23:49;;;;;;;;;1.00;1.00;;;;;17.89;52.85;101699.81;5019757;28;45388;-83
2022/07/04 04:26:14;;;;;;;;;1.00;1.00;;;;;17.89;52.92;101708.78;5019005;28;46544;-83
2022/07/04 04:28:39;;;;;;;;;1.00;1.00;;;;;18.77;53.06;101866.38;5018865;28;45385;-82
2022/07/04 04:31:05;;;;;;;;;1.00;1.00;;;;;18.68;53.12;101844.44;5019518;28;45297;-82
2022/07/04 04:33:30;;;;;;;;;0.67;0.00;;;;;18.30;53.14;101790.91;5019588;28;45392;-83
2022/07/04 04:35:56;;;;;;;;;0.33;0.33;;;;;18.45;53.19;101835.91;5019220;28;45314;-83
2022/07/04 04:38:21;;;;;;;;;0.67;0.67;;;;;17.71;53.04;101710.69;5018856;28;45286;-82
2022/07/04 04:40:46;;;;;;;;;0.33;0.33;;;;;18.59;53.25;101854.00;5019044;28;45446;-82
2022/07/04 04:43:12;;;;;;;;;0.67;0.67;;;;;18.43;53.58;101824.31;5019134;28;45250;-83
2022/07/04 04:45:37;;;;;;;;;0.33;0.33;;;;;18.77;53.49;101877.19;5019177;28;45900;-83
2022/07/04 04:48:03;;;;;;;;;1.00;1.00;;;;;17.89;53.46;101722.25;5034940;28;45345;-82
2022/07/04 04:50:28;;;;;;;;;2.00;2.00;;;;;17.86;53.39;101711.66;5039182;28;45360;-82
2022/07/04 04:52:53;;;;;;;;;1.00;1.00;;;;;18.83;53.60;101875.97;5039135;28;45538;-84
2022/07/04 04:55:19;;;;;;;;;3.33;1.67;;;;;18.83;53.54;101878.69;5037883;28;45953;-83
2022/07/04 04:57:44;;;;;;;;;3.00;1.00;;;;;18.84;53.04;101877.69;5035698;28;45440;-84
2022/07/04 05:00:10;;;;;;;;;4.00;4.00;;;;;18.64;53.30;101840.22;5028656;28;45847;-87
2022/07/04 05:02:35;;;;;;;;;5.67;3.00;;;;;18.30;53.23;101785.50;5019917;28;45392;-86
2022/07/04 05:05:01;;;;;;;;;1.67;1.33;;;;;18.29;53.24;101783.78;5034329;28;46196;-87
2022/07/04 05:07:26;;;;;;;;;1.00;1.00;;;;;18.85;53.56;101884.88;5019392;28;45480;-88
2022/07/04 05:09:58;;;;;;;;;1.00;1.00;;;;;17.82;53.74;101714.63;5018462;28;45682;-87
2022/07/04 05:12:23;;;;;;;;;1.00;1.00;;;;;18.87;53.55;101896.44;5029770;28;45207;-86
2022/07/04 05:14:49;;;;;;;;;2.00;2.00;;;;;18.93;53.57;101885.25;5034211;28;45357;-86
2022/07/04 05:17:14;;;;;;;;;2.33;2.00;;;;;19.02;53.18;101889.22;5018867;28;45345;-82
2022/07/04 05:19:39;;;;;;;;;2.00;2.00;;;;;18.56;53.30;101805.53;5023714;28;45668;-81
2022/07/04 05:22:05;;;;;;;;;2.33;1.00;;;;;18.65;52.94;101818.50;5027463;28;45545;-82
2022/07/04 05:24:30;;;;;;;;;1.33;1.33;;;;;19.04;53.29;101884.59;5025047;28;47177;-81
2022/07/04 05:26:55;;;;;;;;;2.00;0.67;;;;;18.95;53.52;101871.66;5033467;28;45448;-82
2022/07/04 05:29:21;;;;;;;;;1.00;1.00;;;;;19.20;53.75;101879.13;5021124;28;45397;-82
2022/07/04 05:31:46;;;;;;;;;0.67;0.67;;;;;18.97;53.48;101827.38;5031352;28;45532;-85
2022/07/04 05:34:11;;;;;;;;;1.00;1.00;;;;;19.27;53.50;101872.38;5027739;28;46550;-84
2022/07/04 05:36:37;;;;;;;;;1.00;1.00;;;;;19.36;53.33;101879.03;5023895;28;45352;-84
2022/07/04 05:39:05;;;;;;;;;1.33;1.33;;;;;19.19;53.27;101844.94;5033731;28;46068;-85
2022/07/04 05:41:33;;;;;;;;;2.67;1.67;;;;;19.06;53.30;101817.81;5021956;28;45618;-84
2022/07/04 05:43:59;;;;;;;;;0.00;0.00;;;;;19.32;53.37;101856.75;5028846;28;46600;-83
2022/07/04 05:46:25;;;;;;;;;4.00;3.00;;;;;19.12;53.15;101809.31;5029284;28;45354;-82
2022/07/04 05:48:50;;;;;;;;;3.67;1.00;;;;;19.45;53.21;101858.66;5037261;28;45435;-82
2022/07/04 05:51:15;;;;;;;;;1.67;1.67;;;;;18.74;52.93;101718.00;5020733;28;45400;-82
2022/07/04 05:53:41;;;;;;;;;2.00;1.00;;;;;19.71;52.83;101874.13;5030731;28;45481;-82
2022/07/04 05:56:06;;;;;;;;;1.33;1.33;;;;;19.77;52.73;101872.88;5026477;28;45535;-84
2022/07/04 05:58:32;;;;;;;;;1.00;1.00;;;;;18.29;52.57;101621.88;5024454;28;45812;-84
2022/07/04 06:00:57;;;;;;;;;3.00;0.67;;;;;19.81;52.50;101877.97;5029115;28;45606;-82
2022/07/04 06:03:23;;;;;;;;;3.00;2.33;;;;;19.81;52.89;101866.31;5024047;28;46139;-84
2022/07/04 06:05:49;;;;;;;;;2.00;2.00;;;;;19.15;52.76;101746.09;5030209;28;45440;-83
2022/07/04 06:08:14;;;;;;;;;1.00;1.00;;;;;19.17;52.10;101752.28;5027216;28;45506;-83
2022/07/04 06:10:39;;;;;;;;;2.00;2.00;;;;;19.67;52.21;101833.84;5023419;28;45660;-84
2022/07/04 06:13:05;;;;;;;;;2.00;0.33;;;;;19.67;52.18;101823.00;5032417;28;45999;-84
2022/07/04 06:15:31;;;;;;;;;3.00;1.67;;;;;19.39;52.28;101765.31;5031032;28;45798;-86
2022/07/04 06:17:57;;;;;;;;;2.67;2.67;;;;;19.25;51.81;101743.69;5034719;28;45487;-82
2022/07/04 06:20:29;;;;;;;;;2.67;2.33;;;;;19.73;52.03;101823.50;5017523;28;45347;-83
2022/07/04 06:23:01;;;;;;;;;1.00;1.00;;;;;19.34;51.97;101752.06;5026213;28;47210;-85
2022/07/04 06:25:26;;;;;;;;;3.33;2.00;;;;;19.28;51.63;101738.94;5033957;28;45435;-85
2022/07/04 06:27:52;;;;;;;;;1.00;1.00;;;;;19.81;51.69;101828.44;5029928;28;45421;-84
2022/07/04 06:30:18;;;;;;;;;2.00;2.00;;;;;20.19;52.24;101885.44;5033016;28;45611;-85
2022/07/04 06:32:50;;;;;;;;;2.00;2.00;;;;;20.29;52.09;101884.81;5023489;28;46064;-85
2022/07/04 06:38:14;;;;;;;;;2.00;2.00;;;;;20.10;51.46;101836.44;5022243;28;45687;-85
2022/07/04 06:40:40;;;;;;;;;1.00;1.00;;;;;20.40;51.40;101882.28;5017570;28;45424;-85
2022/07/04 06:43:06;;;;;;;;;2.00;2.00;;;;;20.45;51.59;101886.41;5017163;28;46364;-85
2022/07/04 06:45:33;;;;;;;;;2.00;2.00;;;;;20.49;51.77;101878.94;5016880;28;45497;-85
2022/07/04 06:47:59;;;;;;;;;1.67;1.33;;;;;20.54;51.03;101881.34;5033122;28;45329;-85
2022/07/04 06:50:25;;;;;;;;;2.00;2.00;;;;;20.03;51.33;101793.53;5037521;28;45353;-84
2022/07/04 06:52:50;;;;;;;;;2.67;2.00;;;;;20.16;51.28;101800.84;5036411;28;46070;-85
2022/07/04 06:55:15;;;;;;;;;0.33;0.33;;;;;20.66;51.27;101878.69;5036076;28;45605;-86
2022/07/04 06:57:41;;;;;;;;;1.67;1.67;;;;;20.03;50.78;101773.72;5037008;28;45681;-85
2022/07/04 07:00:08;;;;;;;;;3.00;3.00;;;;;20.57;50.22;101852.22;5036850;28;45523;-85
2022/07/04 07:02:37;;;;;;;;;2.00;2.00;;;;;20.01;50.53;101768.41;5018790;28;47617;-85
2022/07/04 07:05:12;;;;;;;;;2.00;2.00;;;;;19.54;50.64;101660.66;5036775;28;45345;-83
2022/07/04 07:07:37;;;;;;;;;1.00;1.00;;;;;20.53;49.65;101834.41;5036443;28;45416;-84
2022/07/04 07:10:03;;;;;;;;;3.00;2.00;;;;;20.35;49.82;101795.94;5018926;28;45523;-85
2022/07/04 07:12:29;;;;;;;;;2.00;1.00;;;;;20.41;49.93;101786.50;5036529;28;46223;-85
2022/07/04 07:14:54;;;;;;;;;1.00;1.00;;;;;20.09;49.25;101723.72;5036704;28;45234;-85
2022/07/04 07:18:14;;;;;;;;;1.67;1.67;;;;;21.21;48.80;101906.53;5036196;28;45483;-86
2022/07/04 07:20:39;;;;;;;;;1.33;1.33;;;;;20.87;48.60;101838.41;5035161;28;45607;-86
2022/07/04 07:23:05;;;;;;;;;1.00;1.00;;;;;20.17;48.81;101730.34;5035620;28;45517;-84
2022/07/04 07:25:43;;;;;;;;;1.00;1.00;;;;;21.30;48.84;101905.00;5036653;28;45775;-86
2022/07/04 07:28:08;;;;;;;;;1.00;1.00;;;;;20.49;47.91;101775.16;5036478;28;45436;-85
2022/07/04 07:30:33;;;;;;;;;0.67;0.67;;;;;19.91;48.34;101671.75;5036495;28;45392;-85
2022/07/04 07:32:59;;;;;;;;;1.00;1.00;;;;;21.28;47.92;101901.53;5018531;28;47627;-85
2022/07/04 07:35:24;;;;;;;;;1.00;1.00;;;;;21.25;48.23;101888.19;5036129;28;45440;-85
2022/07/04 07:37:49;;;;;;;;;1.00;1.00;;;;;21.36;47.91;101898.28;5016153;28;45828;-85
2022/07/04 07:40:15;;;;;;;;;1.00;1.00;;;;;20.76;48.23;101797.63;5016838;28;45381;-85
2022/07/04 07:42:43;;;;;;;;;0.67;0.67;;;;;20.90;47.87;101817.50;5027159;28;45412;-85
2022/07/04 07:45:09;;;;;;;;;2.67;1.00;;;;;21.08;47.72;101832.47;5018453;28;45547;-85
2022/07/04 07:47:34;;;;;;;;;1.00;1.00;;;;;21.56;46.89;101888.75;5036111;28;45506;-86
2022/07/04 07:49:59;;;;;;;;;1.00;0.33;;;;;21.54;47.14;101877.13;5036272;28;45504;-85
2022/07/04 07:52:25;;;;;;;;;1.00;1.00;;;;;21.25;46.72;101826.69;5018432;28;45460;-85
2022/07/04 07:54:50;;;;;;;;;1.33;1.00;;;;;21.68;47.52;101890.56;5036280;28;45500;-84
2022/07/04 07:57:16;;;;;;;;;1.00;1.00;;;;;21.39;46.93;101824.84;5035978;28;45422;-85
2022/07/04 07:59:41;;;;;;;;;9.00;9.00;;;;;21.90;47.07;101898.03;5036513;28;45444;-85
2022/07/04 08:02:06;;;;;;;;;2.33;1.00;;;;;21.27;46.25;101766.94;5017920;28;45432;-85
2022/07/04 08:04:34;;;;;;;;;0.67;0.67;;;;;21.47;45.57;101788.09;5035934;28;45400;-85
2022/07/04 08:07:05;;;;;;;;;2.00;1.00;;;;;22.13;45.36;101885.47;5017751;28;45282;-85
2022/07/04 08:09:31;;;;;;;;;0.33;0.00;;;;;22.19;44.53;101885.00;5036428;28;45504;-85
2022/07/04 08:11:57;;;;;;;;;1.00;1.00;;;;;22.09;43.93;101863.09;5036008;28;45482;-85
2022/07/04 08:14:23;;;;;;;;;1.00;1.00;;;;;21.98;44.27;101844.03;5018043;28;45329;-85
2022/07/04 08:16:48;;;;;;;;;1.00;1.00;;;;;21.75;43.28;101807.75;5036011;28;45452;-85
2022/07/04 08:19:14;;;;;;;;;2.00;1.00;;;;;22.08;43.55;101852.38;5035768;28;45382;-85
2022/07/04 08:21:39;;;;;;;;;0.00;0.00;;;;;21.30;43.03;101712.47;5035431;28;45463;-85
2022/07/04 08:24:15;;;;;;;;;2.00;1.00;;;;;21.76;43.74;101787.78;5036004;28;45487;-85
2022/07/04 08:26:47;;;;;;;;;0.33;0.33;;;;;22.37;44.51;101873.78;5036138;28;45333;-85
2022/07/04 08:29:13;;;;;;;;;0.00;0.00;;;;;21.73;44.15;101755.44;5036066;28;45384;-84
2022/07/04 08:31:38;;;;;;;;;1.00;1.00;;;;;22.11;43.96;101809.56;5032634;28;45544;-85
2022/07/04 08:34:04;;;;;;;;;1.00;1.00;;;;;21.85;43.13;101745.50;5007164;28;45480;-85
2022/07/04 08:36:29;;;;;;;;;1.00;1.00;;;;;22.27;42.79;101793.00;5019333;28;45409;-85
2022/07/04 08:38:54;;;;;;;;;1.00;1.00;;;;;22.34;42.42;101786.09;5019569;28;45455;-85
2022/07/04 08:41:20;;;;;;;;;0.33;0.33;;;;;22.96;41.44;101860.16;5018993;28;46708;-84
2022/07/04 08:43:47;;;;;;;;;1.00;1.00;;;;;22.75;41.27;101801.03;5019281;28;45567;-85
2022/07/04 08:46:16;;;;;;;;;1.67;1.67;;;;;23.62;41.35;101860.34;5020390;28;45678;-85
2022/07/04 08:48:43;;;;;;;;;2.33;1.00;;;;;24.19;39.36;101855.72;5039012;28;45384;-85
2022/07/04 08:51:16;;;;;;;;;2.00;2.00;;;;;24.72;39.98;101847.56;5038707;28;46449;-85
2022/07/04 08:53:50;;;;;;;;;2.00;1.00;;;;;25.95;36.42;101773.88;5038950;28;45302;-85
2022/07/04 08:59:09;;;;;;;;;2.00;2.00;;;;;29.55;29.66;101760.63;5039293;28;45405;-85
2022/07/04 09:01:36;;;;;;;;;1.00;1.00;;;;;31.51;27.32;101773.44;5020729;28;45597;-85
2022/07/04 09:04:01;;;;;;;;;0.00;0.00;;;;;33.33;25.85;101839.97;5038236;28;45393;-85
2022/07/04 09:06:29;;;;;;;;;0.00;0.00;;;;;33.87;24.05;101687.50;5038840;28;45279;-85
2022/07/04 09:08:54;;;;;;;;;0.33;0.33;;;;;35.72;21.88;101784.03;5039280;28;45460;-85
2022/07/04 09:11:20;;;;;;;;;0.00;0.00;;;;;37.00;20.84;101833.13;5038337;28;46438;-85
2022/07/04 09:13:46;;;;;;;;;0.00;0.00;;;;;37.47;20.17;101741.25;5038896;28;45289;-85
2022/07/04 09:16:12;;;;;;;;;0.25;0.25;;;;;38.83;19.45;101792.75;5038431;28;45885;-85
2022/07/04 09:18:37;;;;;;;;;1.00;1.00;;;;;39.82;17.95;101834.59;5038638;28;45714;-85
2022/07/04 09:21:08;;;;;;;;;1.00;1.00;;;;;40.63;18.46;101843.47;5038041;28;46703;-85
2022/07/04 09:23:39;;;;;;;;;1.00;1.00;;;;;41.09;16.89;101758.75;5038502;28;45918;-85
2022/07/04 09:26:11;;;;;;;;;0.00;0.00;;;;;42.51;16.47;101840.25;5038364;28;45457;-85
2022/07/04 09:28:38;;;;;;;;;1.00;1.00;;;;;43.02;15.41;101789.72;5038692;28;45405;-85
2022/07/04 09:31:32;;;;;;;;;0.00;0.00;;;;;42.77;14.42;101616.28;5183074;22;46761;-85
2022/07/04 09:34:06;;;;;;;;;0.00;0.00;;;;;44.23;14.24;101762.47;5020153;28;45329;-83
2022/07/04 09:37:07;;;;;;;;;1.50;1.00;;;;;45.25;13.48;101852.41;5037090;28;45387;-83
2022/07/04 09:40:31;;;;;;;;;0.67;0.00;;;;;44.40;13.22;101619.78;5022631;28;45814;-83
2022/07/04 09:44:11;;;;;;;;;0.00;0.00;;;;;45.07;13.06;101642.59;4951222;28;47098;-83
2022/07/04 09:49:37;;;;;;;;;0.33;0.33;;;;;45.07;13.17;101801.06;5223400;22;45636;-83
2022/07/04 09:52:03;;;;;;;;;0.00;0.00;;;;;42.42;15.94;101832.50;5037752;28;45489;-83
2022/07/04 09:57:44;;;;;;;;;0.00;0.00;;;;;39.75;18.21;101806.72;5045681;22;45385;-84
2022/07/04 10:00:17;;;;;;;;;0.33;0.33;;;;;41.33;17.06;101840.69;5037414;28;45516;-84
2022/07/04 10:02:44;;;;;;;;;0.67;0.67;;;;;43.22;15.06;101859.34;5020334;28;45371;-84
2022/07/04 10:05:38;;;;;;;;;0.00;0.00;;;;;45.22;14.07;101861.41;5037485;28;46200;-83
2022/07/04 10:08:04;;;;;;;;;0.00;0.00;;;;;45.95;13.39;101787.31;5006352;28;45453;-82
2022/07/04 10:10:35;;;;;;;;;1.00;1.00;;;;;47.19;12.46;101857.53;5037833;28;45321;-83
2022/07/04 10:13:33;;;;;;;;;0.00;0.00;;;;;46.35;12.09;101686.94;5019987;28;45483;-83
2022/07/04 10:16:01;;;;;;;;;0.00;0.00;;;;;47.17;11.93;101799.66;4955790;28;47163;-83
2022/07/04 10:18:27;;;;;;;;;0.33;0.33;;;;;47.14;11.66;101781.31;4955132;28;45596;-83
2022/07/04 10:20:54;;;;;;;;;2.00;0.00;;;;;47.50;12.05;101851.78;4956007;28;46202;-83
2022/07/04 10:23:22;;;;;;;;;1.00;1.00;;;;;46.72;11.98;101741.03;4957660;28;45582;-83
2022/07/04 10:26:07;;;;;;;;;1.00;1.00;;;;;47.22;12.18;101850.44;4957043;28;45396;-84
2022/07/04 10:28:45;;;;;;;;;0.00;0.00;;;;;46.56;12.30;101770.41;4964126;28;45621;-84
2022/07/04 10:31:12;;;;;;;;;2.33;0.67;;;;;46.21;12.00;101774.94;4992991;22;45564;-83
2022/07/04 10:33:38;;;;;;;;;0.33;0.33;;;;;45.07;12.30;101615.31;5030255;28;45617;-84
2022/07/04 10:36:19;;;;;;;;;0.00;0.00;;;;;45.54;13.46;101768.31;5030972;28;45476;-84
2022/07/04 10:39:26;;;;;;;;;0.00;0.00;;;;;45.33;12.83;101848.22;4999563;28;45629;-83
2022/07/04 10:42:07;;;;;;;;;0.67;0.67;;;;;43.38;13.70;101611.38;5016850;28;45430;-84
2022/07/04 10:44:43;;;;;;;;;0.00;0.00;;;;;44.18;14.23;101839.16;4974850;28;45421;-83
2022/07/04 10:50:30;;;;;;;;;0.00;0.00;;;;;41.71;14.95;101581.66;4898185;29;45509;-83
2022/07/04 10:53:18;;;;;;;;;0.00;0.00;;;;;42.66;15.39;101802.34;4898350;29;45412;-83
2022/07/04 10:55:43;;;;;;;;;0.67;0.67;;;;;41.81;15.74;101729.41;4898149;29;45550;-86
2022/07/04 10:58:09;;;;;;;;;0.33;0.00;;;;;41.59;15.71;101746.09;4896802;29;45476;-83
2022/07/04 11:00:36;;;;;;;;;0.33;0.00;;;;;40.89;16.46;101683.63;4898479;29;45429;-84
2022/07/04 11:03:17;;;;;;;;;0.33;0.33;;;;;40.94;16.44;101766.78;4898078;29;45402;-83
2022/07/04 11:05:43;;;;;;;;;0.00;0.00;;;;;40.89;16.72;101783.44;4898828;29;45501;-83
2022/07/04 11:08:08;;;;;;;;;0.00;0.00;;;;;40.66;17.26;101798.25;4900952;28;45384;-83
2022/07/04 11:10:38;;;;;;;;;1.33;0.00;;;;;40.14;17.62;101758.94;4936305;28;45422;-84
2022/07/04 11:13:07;;;;;;;;;1.00;0.67;;;;;40.26;17.58;101794.19;4935790;28;45455;-84
2022/07/04 11:15:32;;;;;;;;;1.00;1.00;;;;;39.67;17.42;101740.91;4936757;28;45517;-84
2022/07/04 11:18:10;;;;;;;;;1.00;1.00;;;;;39.59;17.74;101773.88;4935918;28;46239;-83
2022/07/04 11:20:38;;;;;;;;;1.00;0.00;;;;;39.35;18.02;101790.47;4940546;28;45522;-83
2022/07/04 11:23:07;;;;;;;;;0.00;0.00;;;;;38.19;18.58;101666.72;4947841;28;45434;-84
2022/07/04 11:25:47;;;;;;;;;0.67;0.00;;;;;37.14;18.93;101564.31;4992443;28;45824;-85
2022/07/04 11:28:43;;;;;;;;;1.00;0.00;;;;;38.11;19.44;101786.72;5014571;28;47092;-84
2022/07/04 11:31:10;;;;;;;;;1.00;1.00;;;;;37.66;18.74;101787.59;5023694;28;45394;-84
2022/07/04 11:33:39;;;;;;;;;0.00;0.00;;;;;37.02;19.92;101774.50;5036227;28;45473;-84
2022/07/04 11:36:23;;;;;;;;;0.67;0.67;;;;;35.54;20.35;101633.97;5036016;28;45389;-85
2022/07/04 11:38:54;;;;;;;;;0.00;0.00;;;;;36.16;21.21;101781.81;5008871;22;45614;-84
2022/07/04 11:47:15;;;;;;;;;0.67;0.00;;;;;34.72;22.39;101767.91;4999381;28;45398;-83
2022/07/04 11:49:43;;;;;;;;;0.00;0.00;;;;;34.37;22.52;101785.31;5002125;28;46081;-84
2022/07/04 11:52:08;;;;;;;;;0.67;0.67;;;;;33.09;23.52;101620.97;4999660;28;45479;-85
2022/07/04 11:54:34;;;;;;;;;0.67;0.67;;;;;32.74;23.93;101626.22;5016391;28;45375;-84
2022/07/04 11:57:17;;;;;;;;;0.00;0.00;;;;;32.62;23.47;101665.56;5013580;28;45512;-84